Boston, Massachusetts
Current Conditions -  °F | °C
As of 1:54 AM on Thursday 27 Nov 2014 (Local Time) from KBOS Reporting Station
Light Snow Light Snow  
Wind Chill: 23°   Ceiling: 1300
Heat Index: 33°   Visibility: 2mi
Dew Point: 31°   Wind: 16mph
Humidity: 92%   Direction: 330°NNW
Pressure: 29.72"   Gusts: 23mph
Location:  42.36°N, 71.06°W
Report Text: KBOS 270654Z 33014G20KT 2SM -SN BR BKN013 OVC027 01/M01 A2972 RMK AO2 SFC VIS 3 SLP064 P0001 T00061006 $
Loading
Personal Weather Stations






























Interactive Weather Map New forecast layout! Learn more

10-Day Weather Forecast

Advertisements
Track Severe Weather on mobile